Time;durP1;ratioP1;P1;durP2;ratioP2;P2;SDS_P1;SDS_P2;PMS_P1;PMS_P2;Temp;Humidity;BMP_temperature;BMP_pressure;BME280_temperature;BME280_humidity;BME280_pressure;Samples;Min_cycle;Max_cycle;Signal;HPM_P1;HPM_P2
2021/12/04 00:01:12;;;;;;;6.40;5.80;;;6.10;99.90;;;;;;5069845;28;20387;-79
2021/12/04 00:03:39;;;;;;;6.45;5.95;;;6.10;99.90;;;;;;5069474;28;20121;-79
2021/12/04 00:09:04;;;;;;;7.63;7.00;;;6.10;99.90;;;;;;5049169;28;20032;-78
2021/12/04 00:11:30;;;;;;;7.55;6.85;;;6.10;99.90;;;;;;5069809;28;20059;-78
2021/12/04 00:13:56;;;;;;;8.00;7.28;;;6.10;99.90;;;;;;5069711;28;20367;-79
2021/12/04 00:16:24;;;;;;;8.80;7.97;;;6.10;99.90;;;;;;5071748;28;20039;-79
2021/12/04 00:18:49;;;;;;;8.65;7.75;;;6.10;99.90;;;;;;5078777;28;20139;-78
2021/12/04 00:21:15;;;;;;;8.43;7.60;;;6.10;99.90;;;;;;5073668;28;20467;-79
2021/12/04 00:23:41;;;;;;;8.77;7.80;;;6.10;99.90;;;;;;5087550;28;20048;-80
2021/12/04 00:26:07;;;;;;;9.27;8.38;;;6.20;99.90;;;;;;5100514;28;20031;-82
2021/12/04 00:28:32;;;;;;;9.60;8.70;;;6.20;99.90;;;;;;5085074;28;20039;-80
2021/12/04 00:31:04;;;;;;;9.75;8.85;;;6.20;99.90;;;;;;5088870;28;20475;-80
2021/12/04 00:33:31;;;;;;;9.98;8.98;;;6.20;99.90;;;;;;5078272;28;20032;-78
2021/12/04 00:36:04;;;;;;;9.70;8.80;;;6.20;99.90;;;;;;5083730;28;20757;-77
2021/12/04 00:49:27;;;;;;;11.30;9.68;;;6.20;99.90;;;;;;5074086;28;20023;-82
2021/12/04 00:51:54;;;;;;;11.13;10.02;;;6.20;99.90;;;;;;5074232;28;20029;-82
2021/12/04 00:54:22;;;;;;;10.88;9.88;;;6.20;99.90;;;;;;5074009;28;20028;-80
2021/12/04 00:56:48;;;;;;;11.27;10.18;;;6.20;99.90;;;;;;5074360;28;20036;-82
2021/12/04 00:59:14;;;;;;;11.00;9.90;;;6.20;99.90;;;;;;5074331;28;20036;-84
2021/12/04 01:01:41;;;;;;;10.85;9.85;;;6.20;99.90;;;;;;5075819;28;20490;-82
2021/12/04 01:04:20;;;;;;;11.05;10.05;;;6.20;99.90;;;;;;5082844;28;20487;-82
2021/12/04 01:06:46;;;;;;;10.13;9.13;;;6.20;99.90;;;;;;5088934;28;20082;-81
2021/12/04 01:09:14;;;;;;;12.38;9.73;;;6.20;99.90;;;;;;5087762;28;20068;-82
2021/12/04 01:11:41;;;;;;;9.82;8.93;;;6.20;99.90;;;;;;5094002;28;20093;-82
2021/12/04 01:14:09;;;;;;;11.32;10.15;;;6.20;99.90;;;;;;5079616;28;20039;-82
2021/12/04 01:16:35;;;;;;;11.10;10.00;;;6.30;99.90;;;;;;5075742;28;20440;-81
2021/12/04 01:19:00;;;;;;;10.50;9.35;;;6.30;99.90;;;;;;5082097;28;20140;-81
2021/12/04 01:21:26;;;;;;;10.20;9.25;;;6.30;99.90;;;;;;5093416;28;20075;-81
2021/12/04 01:23:52;;;;;;;10.77;9.55;;;6.30;99.90;;;;;;5102388;28;20091;-81
2021/12/04 01:26:18;;;;;;;10.00;9.05;;;6.30;99.90;;;;;;5108604;28;20108;-82
2021/12/04 01:28:43;;;;;;;9.93;8.98;;;6.40;99.90;;;;;;5080331;28;20537;-82
2021/12/04 01:31:09;;;;;;;9.70;8.70;;;6.40;99.90;;;;;;5085325;28;20066;-82
2021/12/04 01:33:35;;;;;;;10.00;9.02;;;6.40;99.90;;;;;;5084265;28;20744;-84
2021/12/04 01:36:00;;;;;;;9.30;8.40;;;6.40;99.90;;;;;;5090170;28;20060;-79
2021/12/04 01:38:26;;;;;;;9.65;8.73;;;6.40;99.90;;;;;;5088601;28;20077;-80
2021/12/04 01:40:52;;;;;;;8.98;8.18;;;6.50;99.90;;;;;;5091739;28;20043;-80
2021/12/04 01:43:18;;;;;;;10.75;8.45;;;6.40;99.90;;;;;;5085787;28;20021;-85
2021/12/04 01:45:44;;;;;;;9.20;8.30;;;6.50;99.90;;;;;;5088011;28;20028;-79
2021/12/04 01:48:10;;;;;;;10.23;8.90;;;6.50;99.90;;;;;;5088545;28;20352;-78
2021/12/04 01:50:36;;;;;;;8.85;8.05;;;6.50;99.90;;;;;;5077556;28;20028;-83
2021/12/04 01:53:03;;;;;;;10.60;8.88;;;6.50;99.90;;;;;;5079582;28;20119;-82
2021/12/04 01:55:31;;;;;;;9.80;8.80;;;6.50;99.90;;;;;;5091680;28;20063;-84
2021/12/04 01:58:01;;;;;;;8.40;7.65;;;6.50;99.90;;;;;;5086997;28;20094;-87
2021/12/04 02:00:31;;;;;;;8.93;8.02;;;6.50;99.90;;;;;;5077996;28;20419;-82
2021/12/04 02:02:57;;;;;;;11.45;9.00;;;6.50;99.90;;;;;;5073634;28;20178;-82
2021/12/04 02:05:23;;;;;;;9.77;8.65;;;6.50;99.90;;;;;;5073407;28;20519;-86
2021/12/04 02:07:48;;;;;;;9.35;8.32;;;6.50;99.90;;;;;;5070873;28;20511;-86
2021/12/04 02:10:14;;;;;;;9.73;8.82;;;6.50;99.90;;;;;;5073658;28;20020;-82
2021/12/04 02:12:40;;;;;;;9.20;8.27;;;6.50;99.90;;;;;;5072536;28;20036;-82
2021/12/04 02:15:10;;;;;;;9.52;8.52;;;6.50;99.90;;;;;;5072817;28;20445;-82
2021/12/04 02:17:35;;;;;;;9.13;8.23;;;6.50;99.90;;;;;;5073070;28;20028;-83
2021/12/04 02:20:01;;;;;;;9.60;8.70;;;6.50;99.90;;;;;;5087380;28;20043;-82
2021/12/04 02:22:27;;;;;;;8.75;7.95;;;6.50;99.90;;;;;;5093615;28;20371;-82
2021/12/04 02:24:52;;;;;;;10.23;8.38;;;6.50;99.90;;;;;;5072694;28;20062;-82
2021/12/04 02:27:18;;;;;;;9.02;7.97;;;6.50;99.90;;;;;;5072790;28;20471;-81
2021/12/04 02:29:47;;;;;;;9.50;8.57;;;6.50;99.90;;;;;;5072306;28;20119;-83
2021/12/04 02:32:15;;;;;;;8.82;7.93;;;6.50;99.90;;;;;;5073019;28;20032;-81
2021/12/04 02:34:41;;;;;;;10.07;8.57;;;6.60;99.90;;;;;;5072529;28;20028;-81
2021/12/04 02:37:08;;;;;;;10.38;8.00;;;6.60;99.90;;;;;;5072730;28;20059;-81
2021/12/04 02:39:37;;;;;;;9.10;8.20;;;6.60;99.90;;;;;;5071876;28;20083;-81
2021/12/04 02:42:07;;;;;;;8.60;7.80;;;6.60;99.90;;;;;;5070062;28;20048;-82
2021/12/04 02:44:38;;;;;;;9.07;8.27;;;6.60;99.90;;;;;;5071996;28;20062;-81
2021/12/04 02:47:08;;;;;;;10.15;8.25;;;6.50;99.90;;;;;;5069190;28;20024;-80
2021/12/04 02:49:34;;;;;;;8.90;7.25;;;6.50;99.90;;;;;;5071986;28;20024;-81
2021/12/04 02:52:08;;;;;;;8.05;7.25;;;6.50;99.90;;;;;;5072142;28;20029;-81
2021/12/04 02:54:34;;;;;;;10.07;7.45;;;6.50;99.90;;;;;;5071489;28;20551;-81
2021/12/04 02:57:01;;;;;;;7.78;7.07;;;6.50;99.90;;;;;;5072158;28;20024;-81
2021/12/04 02:59:27;;;;;;;7.43;6.68;;;6.50;99.90;;;;;;5072214;28;20028;-81
2021/12/04 03:01:55;;;;;;;7.97;7.00;;;6.50;99.90;;;;;;5079329;28;20092;-82
2021/12/04 03:04:23;;;;;;;7.20;6.50;;;6.50;99.90;;;;;;5080162;28;20024;-82
2021/12/04 03:06:48;;;;;;;6.82;6.13;;;6.50;99.90;;;;;;5086562;28;20403;-82
2021/12/04 03:09:15;;;;;;;6.85;6.10;;;6.50;99.90;;;;;;5076904;28;20035;-82
2021/12/04 03:11:41;;;;;;;7.53;6.28;;;6.50;99.90;;;;;;5076170;28;20051;-81
2021/12/04 03:14:07;;;;;;;7.20;6.50;;;6.50;99.90;;;;;;5078972;28;20028;-83
2021/12/04 03:16:34;;;;;;;7.75;6.07;;;6.50;99.90;;;;;;5090490;28;20039;-84
2021/12/04 03:19:01;;;;;;;6.43;5.82;;;6.50;99.90;;;;;;5098490;28;20024;-84
2021/12/04 03:21:27;;;;;;;6.30;5.70;;;6.50;99.90;;;;;;5098346;28;20054;-84
2021/12/04 03:23:59;;;;;;;7.05;6.10;;;6.60;99.90;;;;;;5081106;28;20128;-88
2021/12/04 03:26:25;;;;;;;6.28;5.63;;;6.50;99.90;;;;;;5086977;28;20044;-86
2021/12/04 03:28:53;;;;;;;6.50;5.55;;;6.60;99.90;;;;;;5083176;28;20056;-86
2021/12/04 03:42:11;;;;;;;5.38;4.88;;;6.80;99.90;;;;;;5083905;28;20146;-82
2021/12/04 03:44:38;;;;;;;5.93;5.32;;;6.80;99.70;;;;;;5084133;28;20060;-83
2021/12/04 03:47:04;;;;;;;7.90;5.20;;;6.80;99.70;;;;;;5089573;28;20032;-82
2021/12/04 03:49:31;;;;;;;6.35;5.15;;;6.80;99.70;;;;;;5083703;28;20081;-81
2021/12/04 03:51:56;;;;;;;5.63;5.00;;;6.80;99.70;;;;;;5083647;28;20135;-81
2021/12/04 03:54:22;;;;;;;7.28;5.75;;;6.90;99.70;;;;;;5074321;28;20071;-82
2021/12/04 03:56:49;;;;;;;5.90;5.10;;;6.90;99.90;;;;;;5090619;28;20038;-82
2021/12/04 03:59:15;;;;;;;6.78;5.07;;;6.90;99.60;;;;;;5077562;28;20067;-82
2021/12/04 04:01:42;;;;;;;5.68;4.88;;;6.90;99.60;;;;;;5077941;28;20072;-84
2021/12/04 04:04:07;;;;;;;5.43;4.55;;;6.90;99.50;;;;;;5071271;28;20037;-83
2021/12/04 04:06:33;;;;;;;6.78;4.85;;;7.00;99.50;;;;;;5071935;28;20024;-80
2021/12/04 04:09:00;;;;;;;7.63;5.53;;;6.90;99.50;;;;;;5073678;28;20033;-80
2021/12/04 04:11:26;;;;;;;6.63;4.97;;;7.00;99.50;;;;;;5074943;28;20028;-81
2021/12/04 04:13:51;;;;;;;6.55;5.50;;;7.00;99.40;;;;;;5076351;28;20024;-82
2021/12/04 04:16:17;;;;;;;5.43;4.93;;;7.00;99.70;;;;;;5084945;28;20088;-81
2021/12/04 04:18:43;;;;;;;6.55;5.88;;;7.00;99.40;;;;;;5094415;28;20062;-81
2021/12/04 04:21:08;;;;;;;9.75;5.38;;;7.00;99.40;;;;;;5077673;28;20033;-83
2021/12/04 04:23:34;;;;;;;7.07;5.40;;;7.00;99.40;;;;;;5078452;28;20111;-81
2021/12/04 04:26:01;;;;;;;6.47;5.82;;;7.00;99.40;;;;;;5078817;28;20102;-81
2021/12/04 04:28:26;;;;;;;5.88;5.18;;;7.00;99.30;;;;;;5080698;28;20028;-82
2021/12/04 04:30:52;;;;;;;8.13;5.93;;;7.00;99.30;;;;;;5082485;28;20546;-81
2021/12/04 04:33:18;;;;;;;9.70;6.80;;;7.00;99.30;;;;;;5090877;28;20397;-81
2021/12/04 04:35:56;;;;;;;7.63;6.13;;;7.00;99.30;;;;;;5090015;28;20024;-81
2021/12/04 04:38:32;;;;;;;7.40;5.88;;;7.10;99.30;;;;;;5074475;28;20419;-80
2021/12/04 04:57:34;;;;;;;11.48;7.82;;;7.00;99.20;;;;;;5074430;28;20056;-81
2021/12/04 05:13:22;;;;;;;22.23;10.50;;;6.90;99.50;;;;;;5094073;28;19996;-81
2021/12/04 05:20:48;;;;;;;17.35;10.63;;;6.80;99.50;;;;;;5088563;28;20024;-82
2021/12/04 05:23:13;;;;;;;18.88;10.82;;;6.80;99.70;;;;;;5091049;28;20029;-82
2021/12/04 05:25:39;;;;;;;17.08;10.93;;;6.80;99.50;;;;;;5083255;28;20041;-80
2021/12/04 05:28:06;;;;;;;14.13;10.00;;;6.80;99.50;;;;;;5081917;28;20028;-80
2021/12/04 05:30:33;;;;;;;16.65;10.27;;;6.90;99.60;;;;;;5092884;28;20044;-80
2021/12/04 05:32:59;;;;;;;21.17;11.00;;;6.90;99.60;;;;;;5085221;28;20028;-80
2021/12/04 05:35:25;;;;;;;15.00;10.90;;;6.90;99.60;;;;;;5079836;28;20039;-80
2021/12/04 05:37:51;;;;;;;24.45;11.70;;;6.90;99.70;;;;;;5081595;28;20382;-79
2021/12/04 05:40:17;;;;;;;23.27;12.20;;;6.80;99.60;;;;;;5075174;28;20395;-79
2021/12/04 05:42:44;;;;;;;24.17;12.07;;;6.80;99.70;;;;;;5080861;28;20024;-80
2021/12/04 05:45:49;;;;;;;21.77;11.85;;;6.70;99.80;;;;;;5076820;28;20033;-80
2021/12/04 05:55:53;;;;;;;21.20;11.40;;;6.70;99.80;;;;;;5086160;28;20024;-82
2021/12/04 05:58:25;;;;;;;23.10;11.25;;;6.80;99.80;;;;;;5067451;28;20043;-82
2021/12/04 06:00:53;;;;;;;51.97;13.00;;;6.70;99.90;;;;;;5074940;28;20036;-82
2021/12/04 06:03:20;;;;;;;20.98;11.23;;;6.70;99.80;;;;;;5072559;28;20044;-83
2021/12/04 06:05:46;;;;;;;19.95;11.25;;;6.70;99.90;;;;;;5073116;28;20044;-83
2021/12/04 06:08:12;;;;;;;24.13;11.00;;;6.70;99.90;;;;;;5073352;28;20029;-82
2021/12/04 06:10:39;;;;;;;19.95;10.82;;;6.60;99.90;;;;;;5076121;28;20028;-82
2021/12/04 06:13:05;;;;;;;19.88;10.57;;;6.60;99.90;;;;;;5091852;28;20036;-82
2021/12/04 06:15:31;;;;;;;21.23;11.63;;;6.60;99.90;;;;;;5085625;28;20028;-80
2021/12/04 06:17:57;;;;;;;20.15;11.32;;;6.60;99.90;;;;;;5071854;28;20082;-81
2021/12/04 06:23:08;;;;;;;18.83;10.48;;;6.60;99.90;;;;;;5072704;28;20440;-81
2021/12/04 06:25:34;;;;;;;18.52;10.40;;;6.60;99.90;;;;;;5072712;28;20025;-82
2021/12/04 06:28:00;;;;;;;19.38;10.57;;;6.70;99.90;;;;;;5072245;28;20523;-81
2021/12/04 06:30:26;;;;;;;20.25;10.93;;;6.70;99.90;;;;;;5072069;28;20024;-81
2021/12/04 06:32:53;;;;;;;21.48;10.40;;;6.80;99.90;;;;;;5071463;28;20071;-81
2021/12/04 06:35:21;;;;;;;17.83;9.50;;;6.80;99.90;;;;;;5072563;28;20024;-81
2021/12/04 06:37:50;;;;;;;18.75;10.23;;;6.80;99.90;;;;;;5072466;28;20021;-79
2021/12/04 06:40:18;;;;;;;15.85;9.25;;;6.80;99.80;;;;;;5069610;28;20395;-80
2021/12/04 06:42:45;;;;;;;16.77;9.43;;;6.70;99.80;;;;;;5072118;28;20020;-80
2021/12/04 06:45:12;;;;;;;17.27;8.90;;;6.70;99.80;;;;;;5071921;28;20029;-80
2021/12/04 06:47:40;;;;;;;14.88;9.05;;;6.70;99.90;;;;;;5071592;28;20058;-80
2021/12/04 06:50:14;;;;;;;16.58;8.68;;;6.70;99.90;;;;;;5071495;28;20040;-80
2021/12/04 06:52:43;;;;;;;16.55;9.25;;;6.70;99.90;;;;;;5070428;28;20086;-79
2021/12/04 06:55:09;;;;;;;19.50;9.40;;;6.80;99.90;;;;;;5071641;28;20052;-79
2021/12/04 06:57:38;;;;;;;17.30;9.27;;;6.80;99.90;;;;;;5071745;28;20044;-80
2021/12/04 07:00:07;;;;;;;17.52;9.95;;;6.80;99.90;;;;;;5071347;28;20045;-80
2021/12/04 07:02:32;;;;;;;13.52;9.20;;;6.80;99.80;;;;;;5075881;28;20063;-80
2021/12/04 07:04:58;;;;;;;17.13;9.77;;;6.90;99.90;;;;;;5079832;28;20023;-80
2021/12/04 07:07:24;;;;;;;20.60;10.27;;;6.90;99.80;;;;;;5078524;28;20032;-81
2021/12/04 07:09:50;;;;;;;17.67;10.23;;;6.90;99.70;;;;;;5097631;28;20024;-80
2021/12/04 07:12:15;;;;;;;18.40;10.25;;;6.90;99.70;;;;;;5111108;28;20041;-81
2021/12/04 07:14:41;;;;;;;18.83;11.20;;;6.90;99.70;;;;;;5086554;28;20096;-81
2021/12/04 07:17:08;;;;;;;15.82;10.38;;;6.90;99.70;;;;;;5079306;28;20123;-81
2021/12/04 07:19:34;;;;;;;18.25;11.02;;;6.90;99.70;;;;;;5080177;28;20044;-81
2021/12/04 07:22:02;;;;;;;20.45;10.70;;;6.90;99.70;;;;;;5073379;28;20077;-83
2021/12/04 07:24:29;;;;;;;18.20;11.55;;;7.00;99.60;;;;;;5084378;28;20036;-82
2021/12/04 07:26:55;;;;;;;17.27;10.13;;;7.00;99.90;;;;;;5088187;28;20485;-82
2021/12/04 07:29:21;;;;;;;18.83;11.80;;;7.00;99.60;;;;;;5084606;28;20119;-82
2021/12/04 07:31:47;;;;;;;22.98;11.95;;;7.00;99.60;;;;;;5076723;28;20108;-81
2021/12/04 07:34:12;;;;;;;24.45;12.77;;;7.00;99.60;;;;;;5085186;28;20060;-82
2021/12/04 07:36:38;;;;;;;26.95;13.38;;;7.00;99.50;;;;;;5091295;28;20486;-82
2021/12/04 07:39:04;;;;;;;22.25;12.43;;;7.00;99.50;;;;;;5083590;28;20059;-82
2021/12/04 07:41:30;;;;;;;23.83;12.82;;;7.00;99.40;;;;;;5082996;28;20021;-80
2021/12/04 07:43:56;;;;;;;24.42;12.23;;;7.00;99.50;;;;;;5086245;28;20050;-83
2021/12/04 07:46:22;;;;;;;23.45;12.60;;;7.00;99.50;;;;;;5081701;28;20031;-82
2021/12/04 07:48:47;;;;;;;21.70;12.05;;;7.00;99.50;;;;;;5084145;28;20411;-82
2021/12/04 07:51:17;;;;;;;22.67;12.48;;;7.00;99.60;;;;;;5077545;28;20031;-82
2021/12/04 07:53:43;;;;;;;28.45;13.32;;;7.00;99.50;;;;;;5089603;28;20043;-83
2021/12/04 07:56:09;;;;;;;26.92;13.35;;;7.00;99.60;;;;;;5086268;28;20027;-83
2021/12/04 07:58:35;;;;;;;27.40;13.35;;;7.00;99.50;;;;;;5087152;28;20044;-83
2021/12/04 08:01:01;;;;;;;26.63;12.25;;;6.90;99.60;;;;;;5081941;28;20028;-83
2021/12/04 08:03:26;;;;;;;26.33;13.18;;;7.00;99.70;;;;;;5087266;28;20474;-83
2021/12/04 08:05:52;;;;;;;22.77;11.95;;;6.90;99.70;;;;;;5087295;28;20031;-83
2021/12/04 08:08:18;;;;;;;23.77;12.38;;;7.00;99.70;;;;;;5087285;28;20043;-82
2021/12/04 08:10:43;;;;;;;22.50;11.13;;;7.00;99.70;;;;;;5101354;28;20037;-82
2021/12/04 08:13:09;;;;;;;24.17;11.25;;;7.00;99.70;;;;;;5085974;28;20025;-81
2021/12/04 08:15:37;;;;;;;21.17;11.25;;;7.00;99.70;;;;;;5085414;28;20033;-79
2021/12/04 08:18:05;;;;;;;25.30;12.30;;;7.00;99.90;;;;;;5067944;28;20082;-82
2021/12/04 08:20:31;;;;;;;23.23;11.10;;;7.00;99.90;;;;;;5088787;28;20403;-82
2021/12/04 08:22:56;;;;;;;24.38;11.77;;;7.00;99.90;;;;;;5079679;28;20031;-83
2021/12/04 08:25:23;;;;;;;26.08;11.98;;;7.10;99.90;;;;;;5078586;28;20475;-81
2021/12/04 08:27:50;;;;;;;23.73;11.48;;;7.10;99.90;;;;;;5080564;28;20046;-80
2021/12/04 08:30:20;;;;;;;23.38;11.98;;;7.10;99.90;;;;;;5086624;28;20028;-83
2021/12/04 08:32:46;;;;;;;23.48;11.13;;;7.10;99.90;;;;;;5089914;28;20024;-82
2021/12/04 08:35:17;;;;;;;23.67;11.05;;;7.20;99.90;;;;;;5082763;28;20392;-90
2021/12/04 08:37:44;;;;;;;27.23;12.02;;;7.10;99.80;;;;;;5089381;28;20040;-91
2021/12/04 08:40:14;;;;;;;22.77;11.52;;;7.10;99.80;;;;;;5079827;28;20040;-91
2021/12/04 08:42:52;;;;;;;17.95;9.85;;;7.10;99.80;;;;;;5087863;28;20032;-87
2021/12/04 08:45:19;;;;;;;23.10;11.48;;;7.10;99.80;;;;;;5090418;28;20024;-88
2021/12/04 08:47:45;;;;;;;20.83;9.60;;;7.20;99.80;;;;;;5080389;28;20417;-90
2021/12/04 08:50:20;;;;;;;24.40;10.35;;;7.20;99.70;;;;;;5083279;28;20502;-86
2021/12/04 08:52:46;;;;;;;23.55;10.57;;;7.20;99.70;;;;;;5088551;28;20028;-89
2021/12/04 08:55:14;;;;;;;21.50;10.77;;;7.30;99.50;;;;;;5083933;28;20116;-83
2021/12/04 08:57:40;;;;;;;21.15;10.25;;;7.20;99.40;;;;;;5081751;28;20039;-83
2021/12/04 09:00:09;;;;;;;23.83;11.45;;;7.20;99.40;;;;;;5076582;28;20041;-88
2021/12/04 09:02:36;;;;;;;18.95;9.70;;;7.30;99.60;;;;;;5086125;28;20500;-85
2021/12/04 09:05:03;;;;;;;21.60;10.73;;;7.30;99.60;;;;;;5086867;28;20028;-81
2021/12/04 09:07:28;;;;;;;22.60;11.00;;;7.40;99.60;;;;;;5099475;28;20012;-81
2021/12/04 09:09:56;;;;;;;25.60;11.93;;;7.40;99.50;;;;;;5095533;28;20039;-83
2021/12/04 09:12:24;;;;;;;25.20;11.02;;;7.30;99.30;;;;;;5085748;28;20047;-87
2021/12/04 09:14:50;;;;;;;23.55;11.32;;;7.30;99.20;;;;;;5080647;28;20409;-85
2021/12/04 09:17:19;;;;;;;30.10;12.70;;;7.30;99.30;;;;;;5090921;28;20069;-89
2021/12/04 09:19:45;;;;;;;25.02;11.38;;;7.30;99.40;;;;;;5086224;28;20425;-84
2021/12/04 09:22:24;;;;;;;25.63;11.70;;;7.30;99.30;;;;;;5079112;28;20031;-90
2021/12/04 09:24:54;;;;;;;21.83;12.63;;;7.30;99.40;;;;;;5090108;28;20390;-85
2021/12/04 09:27:42;;;;;;;24.58;11.88;;;7.30;99.50;;;;;;5093701;28;20047;-85
2021/12/04 09:59:44;;;;;;;23.27;11.77;;;7.50;99.20;;;;;;5084408;28;20039;-86
2021/12/04 10:02:13;;;;;;;20.52;12.13;;;7.50;99.20;;;;;;5082876;28;20040;-81
2021/12/04 10:16:08;;;;;;;21.15;13.93;;;7.40;99.20;;;;;;5077892;28;20085;-79
2021/12/04 10:19:01;;;;;;;22.67;13.25;;;7.40;99.20;;;;;;5083303;28;20135;-79
2021/12/04 10:21:38;;;;;;;24.17;13.63;;;7.40;99.20;;;;;;5080415;28;20032;-80
2021/12/04 10:24:24;;;;;;;20.42;11.80;;;7.40;99.30;;;;;;5082329;28;20274;-84
2021/12/04 10:32:35;;;;;;;20.70;12.30;;;7.50;99.50;;;;;;5079949;28;20486;-82
2021/12/04 10:35:10;;;;;;;26.38;12.85;;;7.60;99.50;;;;;;5078665;28;20039;-79
2021/12/04 10:38:05;;;;;;;26.00;14.38;;;7.60;99.30;;;;;;5073513;28;20024;-81
2021/12/04 10:40:39;;;;;;;23.40;12.02;;;7.60;99.20;;;;;;5071555;28;20048;-80
2021/12/04 10:43:13;;;;;;;21.42;11.77;;;7.70;99.30;;;;;;5076063;28;20154;-79
2021/12/04 10:45:50;;;;;;;25.88;12.98;;;7.60;99.20;;;;;;5076507;28;20506;-78
2021/12/04 10:48:21;;;;;;;24.75;13.00;;;7.60;99.20;;;;;;5073103;28;20036;-78
2021/12/04 10:53:25;;;;;;;23.57;10.53;;;7.70;99.20;;;;;;5079438;28;20466;-77
2021/12/04 11:42:45;;;;;;;21.48;11.90;;;7.70;98.70;;;;;;5079723;28;20074;-79
2021/12/04 11:45:25;;;;;;;20.65;12.85;;;7.70;98.80;;;;;;5077122;28;20437;-80
2021/12/04 11:47:58;;;;;;;23.92;11.85;;;7.70;98.70;;;;;;5076400;28;20024;-79
2021/12/04 11:50:26;;;;;;;18.90;11.55;;;7.70;98.70;;;;;;5075176;28;20570;-79
2021/12/04 11:52:58;;;;;;;19.33;12.32;;;7.70;98.80;;;;;;5070812;28;20111;-79
2021/12/04 11:55:27;;;;;;;18.42;11.07;;;7.80;99.00;;;;;;5076710;28;20044;-76
2021/12/04 11:57:53;;;;;;;16.42;10.48;;;7.80;99.00;;;;;;5073782;28;20028;-85
2021/12/04 12:00:26;;;;;;;18.25;11.30;;;7.90;99.10;;;;;;5094798;28;20051;-78
2021/12/04 12:03:05;;;;;;;21.17;11.68;;;8.00;99.10;;;;;;5095363;28;20052;-79
2021/12/04 12:05:52;;;;;;;18.85;11.77;;;7.90;98.90;;;;;;5078387;28;20357;-79
2021/12/04 12:08:27;;;;;;;16.88;11.05;;;8.00;98.70;;;;;;5080071;28;20033;-79
2021/12/04 12:11:01;;;;;;;18.92;10.98;;;8.00;98.70;;;;;;5078944;28;20495;-80
2021/12/04 12:13:29;;;;;;;14.35;9.65;;;8.00;98.70;;;;;;5088068;28;20036;-80
2021/12/04 12:16:03;;;;;;;16.55;10.18;;;8.00;98.70;;;;;;5086937;28;20020;-80
2021/12/04 12:18:29;;;;;;;14.40;9.63;;;8.10;98.70;;;;;;5076888;28;20037;-80
2021/12/04 12:21:02;;;;;;;13.98;8.98;;;8.20;98.70;;;;;;5080773;28;20028;-80
2021/12/04 12:23:31;;;;;;;;;;;8.20;98.70;;;;;;5077519;28;20407;-81
2021/12/04 12:37:18;;;;;;;18.23;10.48;;;8.30;98.60;;;;;;5080910;28;20730;-80
2021/12/04 12:40:03;;;;;;;13.40;9.95;;;8.30;98.60;;;;;;5089359;28;20352;-80
2021/12/04 12:42:38;;;;;;;14.13;8.90;;;8.30;98.50;;;;;;5089080;28;20027;-80
2021/12/04 12:45:23;;;;;;;13.05;9.70;;;8.30;98.60;;;;;;5082084;28;20028;-80
2021/12/04 12:48:01;;;;;;;9.35;7.45;;;8.30;98.50;;;;;;5085220;28;20612;-81
2021/12/04 12:50:28;;;;;;;13.50;9.80;;;8.30;98.50;;;;;;5084040;28;20609;-81
2021/12/04 12:53:12;;;;;;;12.25;8.98;;;8.40;98.50;;;;;;5080052;28;20112;-76
2021/12/04 12:55:39;;;;;;;11.43;8.07;;;8.40;98.40;;;;;;5091369;28;20057;-76
2021/12/04 12:58:31;;;;;;;10.45;9.32;;;8.40;98.40;;;;;;5093118;28;20023;-78
2021/12/04 13:12:51;;;;;;;12.73;8.48;;;8.20;97.60;;;;;;5086894;28;20039;-78
2021/12/04 13:15:39;;;;;;;9.32;8.23;;;8.20;97.80;;;;;;5078026;28;20036;-78
2021/12/04 13:18:21;;;;;;;9.90;8.35;;;8.20;98.00;;;;;;5086281;28;20478;-78
2021/12/04 13:20:49;;;;;;;9.50;8.50;;;8.20;98.00;;;;;;5078243;28;20024;-77
2021/12/04 13:23:19;;;;;;;9.23;8.32;;;8.20;98.00;;;;;;5084470;28;20024;-76
2021/12/04 13:26:00;;;;;;;8.95;8.02;;;8.20;98.00;;;;;;5083342;28;20162;-76
2021/12/04 13:28:29;;;;;;;9.50;8.60;;;8.20;98.00;;;;;;5084334;28;20028;-77
2021/12/04 13:30:57;;;;;;;9.52;8.38;;;8.20;98.00;;;;;;5073309;28;20021;-79
2021/12/04 13:33:23;;;;;;;10.60;9.50;;;8.20;98.00;;;;;;5091038;28;20016;-78
2021/12/04 13:35:49;;;;;;;9.50;8.50;;;8.20;98.00;;;;;;5080035;28;20047;-77
2021/12/04 13:38:16;;;;;;;9.10;8.10;;;8.30;98.10;;;;;;5077855;28;20445;-79
2021/12/04 13:40:45;;;;;;;10.65;9.20;;;8.30;98.10;;;;;;5076856;28;20056;-82
2021/12/04 13:43:13;;;;;;;8.95;8.05;;;8.20;98.00;;;;;;5079975;28;20032;-79
2021/12/04 13:45:39;;;;;;;11.45;8.35;;;8.30;98.00;;;;;;5091162;28;20031;-76
2021/12/04 13:48:06;;;;;;;8.82;7.93;;;8.30;98.00;;;;;;5081180;28;20043;-76
2021/12/04 13:53:06;;;;;;;9.40;7.68;;;8.40;98.00;;;;;;5080793;28;20024;-78
2021/12/04 13:55:36;;;;;;;10.55;8.50;;;8.40;98.00;;;;;;5089757;28;20035;-73
2021/12/04 13:58:04;;;;;;;8.82;7.93;;;8.40;97.90;;;;;;5084956;28;20032;-76
2021/12/04 14:00:29;;;;;;;10.38;8.48;;;8.40;97.90;;;;;;5088336;28;20105;-76
2021/12/04 14:02:55;;;;;;;9.63;8.63;;;8.40;97.90;;;;;;5075188;28;20068;-77
2021/12/04 14:05:23;;;;;;;8.90;7.95;;;8.40;97.90;;;;;;5072224;28;20016;-77
2021/12/04 14:07:54;;;;;;;8.98;7.95;;;8.30;97.90;;;;;;5072239;28;20031;-79
2021/12/04 14:10:32;;;;;;;10.23;7.90;;;8.40;98.00;;;;;;5071847;28;20487;-75
2021/12/04 14:13:00;;;;;;;11.30;7.95;;;8.40;98.10;;;;;;5071589;28;20051;-76
2021/12/04 14:15:27;;;;;;;8.93;7.93;;;8.40;98.00;;;;;;5073234;28;20110;-77
2021/12/04 14:18:02;;;;;;;10.88;8.85;;;8.30;98.00;;;;;;5072078;28;20025;-76
2021/12/04 14:20:30;;;;;;;11.23;8.52;;;8.40;98.00;;;;;;5072371;28;20111;-78
2021/12/04 14:22:56;;;;;;;10.07;9.05;;;8.40;98.00;;;;;;5076897;28;20035;-81
2021/12/04 14:25:24;;;;;;;12.48;8.88;;;8.40;98.00;;;;;;5075418;28;20044;-79
2021/12/04 14:27:52;;;;;;;12.13;10.00;;;8.40;98.00;;;;;;5083772;28;20032;-84
2021/12/04 14:30:19;;;;;;;11.75;9.60;;;8.30;98.10;;;;;;5082153;28;20025;-79
2021/12/04 14:32:46;;;;;;;11.23;9.95;;;8.30;98.20;;;;;;5070669;28;20033;-80
2021/12/04 14:35:15;;;;;;;12.75;10.98;;;8.30;98.20;;;;;;5084125;28;20024;-79
2021/12/04 14:37:42;;;;;;;12.77;11.48;;;8.20;98.10;;;;;;5078358;28;20052;-79
2021/12/04 14:40:14;;;;;;;13.80;11.38;;;8.10;98.20;;;;;;5073616;28;20448;-80
2021/12/04 14:42:41;;;;;;;14.37;11.10;;;8.00;98.30;;;;;;5072625;28;20029;-80
2021/12/04 14:45:21;;;;;;;12.52;10.82;;;8.00;98.30;;;;;;5072163;28;20051;-80
2021/12/04 14:48:33;;;;;;;12.73;11.13;;;8.00;98.50;;;;;;5070330;28;20071;-79
2021/12/04 14:51:06;;;;;;;11.40;10.20;;;8.00;98.60;;;;;;5025216;28;20111;-80
2021/12/04 14:53:33;;;;;;;;;;;8.00;98.60;;;;;;5023280;28;20125;-81
2021/12/04 14:56:02;;;;;;;13.93;11.55;;;8.00;98.60;;;;;;5063382;28;19908;-79
2021/12/04 14:58:28;;;;;;;10.70;9.43;;;8.00;98.40;;;;;;5075688;28;20476;-78
2021/12/04 15:01:08;;;;;;;10.55;8.40;;;8.00;98.60;;;;;;5072108;28;20063;-78
2021/12/04 15:03:38;;;;;;;12.27;10.55;;;8.10;98.90;;;;;;5069337;28;20037;-79
2021/12/04 15:06:06;;;;;;;12.13;10.60;;;8.20;99.00;;;;;;5071482;28;20028;-80
2021/12/04 15:08:41;;;;;;;12.80;10.73;;;8.10;98.80;;;;;;5071176;28;20503;-78
2021/12/04 15:11:31;;;;;;;12.55;10.80;;;8.20;98.70;;;;;;5070365;28;20123;-78
2021/12/04 15:13:58;;;;;;;11.60;10.23;;;8.20;98.80;;;;;;5070038;28;20032;-78
2021/12/04 15:16:38;;;;;;;12.40;9.60;;;8.20;98.80;;;;;;5069739;28;20032;-79
2021/12/04 15:19:37;;;;;;;12.10;10.43;;;8.20;99.00;;;;;;5068589;28;20028;-77
2021/12/04 15:22:03;;;;;;;13.07;10.05;;;8.20;98.70;;;;;;5070864;28;20047;-85
2021/12/04 15:24:34;;;;;;;12.70;10.27;;;8.20;98.50;;;;;;5070505;28;20024;-78
2021/12/04 15:27:15;;;;;;;13.27;10.38;;;8.20;98.60;;;;;;5070656;28;20111;-77
2021/12/04 15:29:44;;;;;;;12.60;10.63;;;8.20;98.60;;;;;;5071793;28;20021;-76
2021/12/04 15:32:14;;;;;;;12.75;9.23;;;8.20;99.00;;;;;;5071425;28;20426;-82
2021/12/04 15:34:52;;;;;;;13.82;9.55;;;8.20;98.80;;;;;;5068685;28;20494;-76
2021/12/04 15:37:35;;;;;;;12.82;10.10;;;8.20;98.70;;;;;;5071084;28;20028;-76
2021/12/04 15:40:04;;;;;;;13.02;9.98;;;8.20;98.60;;;;;;5071907;28;20112;-78
2021/12/04 15:42:49;;;;;;;12.98;10.98;;;8.10;98.60;;;;;;5071681;28;20106;-80
2021/12/04 15:45:31;;;;;;;14.48;11.73;;;8.10;98.80;;;;;;5070789;28;20541;-83
2021/12/04 15:53:21;;;;;;;14.93;12.02;;;8.10;98.80;;;;;;5093490;28;20024;-82
2021/12/04 15:55:50;;;;;;;14.77;12.30;;;8.00;98.80;;;;;;5072744;28;20024;-81
2021/12/04 15:58:21;;;;;;;14.93;12.45;;;8.00;98.90;;;;;;5071969;28;20048;-83
2021/12/04 16:00:53;;;;;;;15.10;11.65;;;8.00;98.90;;;;;;5072375;28;20472;-91
2021/12/04 16:03:24;;;;;;;16.60;13.02;;;8.00;99.00;;;;;;5072719;28;20115;-85
2021/12/04 16:05:53;;;;;;;15.77;12.45;;;8.00;99.10;;;;;;5072192;28;20070;-85
2021/12/04 16:08:23;;;;;;;21.02;13.30;;;7.90;99.10;;;;;;5074899;28;20025;-89
2021/12/04 16:10:51;;;;;;;17.27;12.95;;;7.90;99.10;;;;;;5076055;28;20108;-85
2021/12/04 16:13:23;;;;;;;16.70;11.43;;;7.90;99.20;;;;;;5074044;28;20039;-89